sensor_id;sensor_type;location;lat;lon;timestamp;temperature;humidity
75786;DHT22;64402;44.708;37.644;2023-10-31T00:01:30;10.30;86.17
75786;DHT22;64402;44.708;37.644;2023-10-31T00:03:56;10.26;85.62
75786;DHT22;64402;44.708;37.644;2023-10-31T00:06:23;10.24;86.06
75786;DHT22;64402;44.708;37.644;2023-10-31T00:08:49;10.23;86.48
75786;DHT22;64402;44.708;37.644;2023-10-31T00:11:16;10.24;85.96
75786;DHT22;64402;44.708;37.644;2023-10-31T00:13:42;10.23;86.16
75786;DHT22;64402;44.708;37.644;2023-10-31T00:16:08;10.23;86.16
75786;DHT22;64402;44.708;37.644;2023-10-31T00:18:35;10.22;86.33
75786;DHT22;64402;44.708;37.644;2023-10-31T00:21:01;10.16;86.06
75786;DHT22;64402;44.708;37.644;2023-10-31T00:23:27;10.15;86.29
75786;DHT22;64402;44.708;37.644;2023-10-31T00:25:54;10.18;86.45
75786;DHT22;64402;44.708;37.644;2023-10-31T00:28:20;10.15;86.28
75786;DHT22;64402;44.708;37.644;2023-10-31T00:30:46;10.14;86.54
75786;DHT22;64402;44.708;37.644;2023-10-31T00:33:13;10.15;86.49
75786;DHT22;64402;44.708;37.644;2023-10-31T00:35:39;10.14;86.33
75786;DHT22;64402;44.708;37.644;2023-10-31T00:38:05;10.11;86.16
75786;DHT22;64402;44.708;37.644;2023-10-31T00:40:32;10.06;86.22
75786;DHT22;64402;44.708;37.644;2023-10-31T00:42:58;10.04;86.57
75786;DHT22;64402;44.708;37.644;2023-10-31T00:45:26;10.04;86.67
75786;DHT22;64402;44.708;37.644;2023-10-31T00:47:53;10.05;87.06
75786;DHT22;64402;44.708;37.644;2023-10-31T00:50:19;10.05;86.72
75786;DHT22;64402;44.708;37.644;2023-10-31T00:52:45;10.04;86.54
75786;DHT22;64402;44.708;37.644;2023-10-31T00:55:12;9.98;86.35
75786;DHT22;64402;44.708;37.644;2023-10-31T00:57:38;9.93;86.54
75786;DHT22;64402;44.708;37.644;2023-10-31T01:00:05;9.94;86.98
75786;DHT22;64402;44.708;37.644;2023-10-31T01:02:31;9.95;86.84
75786;DHT22;64402;44.708;37.644;2023-10-31T01:04:58;9.94;86.12
75786;DHT22;64402;44.708;37.644;2023-10-31T01:07:24;9.89;86.29
75786;DHT22;64402;44.708;37.644;2023-10-31T01:09:50;9.82;86.32
75786;DHT22;64402;44.708;37.644;2023-10-31T01:12:17;9.78;86.22
75786;DHT22;64402;44.708;37.644;2023-10-31T01:14:43;9.76;86.84
75786;DHT22;64402;44.708;37.644;2023-10-31T01:17:09;9.72;86.50
75786;DHT22;64402;44.708;37.644;2023-10-31T01:19:36;9.70;86.38
75786;DHT22;64402;44.708;37.644;2023-10-31T01:22:02;9.65;86.34
75786;DHT22;64402;44.708;37.644;2023-10-31T01:24:29;9.63;86.13
75786;DHT22;64402;44.708;37.644;2023-10-31T01:26:55;9.61;86.48
75786;DHT22;64402;44.708;37.644;2023-10-31T01:29:21;9.61;86.89
75786;DHT22;64402;44.708;37.644;2023-10-31T01:31:48;9.59;86.99
75786;DHT22;64402;44.708;37.644;2023-10-31T01:34:14;9.57;87.04
75786;DHT22;64402;44.708;37.644;2023-10-31T01:36:40;9.54;86.53
75786;DHT22;64402;44.708;37.644;2023-10-31T01:39:09;9.52;86.51
75786;DHT22;64402;44.708;37.644;2023-10-31T01:41:43;9.51;87.12
75786;DHT22;64402;44.708;37.644;2023-10-31T01:44:10;9.50;87.57
75786;DHT22;64402;44.708;37.644;2023-10-31T01:46:36;9.52;87.82
75786;DHT22;64402;44.708;37.644;2023-10-31T01:49:03;9.53;87.92
75786;DHT22;64402;44.708;37.644;2023-10-31T01:51:29;9.52;88.20
75786;DHT22;64402;44.708;37.644;2023-10-31T01:53:56;9.53;88.20
75786;DHT22;64402;44.708;37.644;2023-10-31T01:56:23;9.54;88.28
75786;DHT22;64402;44.708;37.644;2023-10-31T01:58:49;9.56;88.57
75786;DHT22;64402;44.708;37.644;2023-10-31T02:01:16;9.61;88.51
75786;DHT22;64402;44.708;37.644;2023-10-31T02:03:42;9.59;88.47
75786;DHT22;64402;44.708;37.644;2023-10-31T02:06:09;9.60;88.49
75786;DHT22;64402;44.708;37.644;2023-10-31T02:08:35;9.63;88.92
75786;DHT22;64402;44.708;37.644;2023-10-31T02:11:02;9.64;88.99
75786;DHT22;64402;44.708;37.644;2023-10-31T02:13:29;9.65;88.60
75786;DHT22;64402;44.708;37.644;2023-10-31T02:15:56;9.66;88.26
75786;DHT22;64402;44.708;37.644;2023-10-31T02:18:22;9.65;87.76
75786;DHT22;64402;44.708;37.644;2023-10-31T02:20:49;9.64;87.62
75786;DHT22;64402;44.708;37.644;2023-10-31T02:23:15;9.59;88.06
75786;DHT22;64402;44.708;37.644;2023-10-31T02:25:42;9.55;88.42
75786;DHT22;64402;44.708;37.644;2023-10-31T02:28:08;9.55;88.59
75786;DHT22;64402;44.708;37.644;2023-10-31T02:30:35;9.54;88.84
75786;DHT22;64402;44.708;37.644;2023-10-31T02:33:02;9.61;89.26
75786;DHT22;64402;44.708;37.644;2023-10-31T02:35:29;9.69;89.26
75786;DHT22;64402;44.708;37.644;2023-10-31T02:37:55;9.67;88.51
75786;DHT22;64402;44.708;37.644;2023-10-31T02:40:22;9.63;88.60
75786;DHT22;64402;44.708;37.644;2023-10-31T02:42:48;9.63;88.68
75786;DHT22;64402;44.708;37.644;2023-10-31T02:45:15;9.61;88.46
75786;DHT22;64402;44.708;37.644;2023-10-31T02:47:41;9.57;87.59
75786;DHT22;64402;44.708;37.644;2023-10-31T02:50:08;9.50;87.68
75786;DHT22;64402;44.708;37.644;2023-10-31T02:52:34;9.44;87.61
75786;DHT22;64402;44.708;37.644;2023-10-31T02:55:01;9.41;88.25
75786;DHT22;64402;44.708;37.644;2023-10-31T02:57:27;9.42;88.82
75786;DHT22;64402;44.708;37.644;2023-10-31T02:59:53;9.41;88.70
75786;DHT22;64402;44.708;37.644;2023-10-31T03:02:20;9.44;88.80
75786;DHT22;64402;44.708;37.644;2023-10-31T03:04:46;9.41;88.31
75786;DHT22;64402;44.708;37.644;2023-10-31T03:07:13;9.38;88.75
75786;DHT22;64402;44.708;37.644;2023-10-31T03:09:39;9.39;89.17
75786;DHT22;64402;44.708;37.644;2023-10-31T03:12:06;9.40;89.18
75786;DHT22;64402;44.708;37.644;2023-10-31T03:14:32;9.40;89.19
75786;DHT22;64402;44.708;37.644;2023-10-31T03:16:59;9.37;88.67
75786;DHT22;64402;44.708;37.644;2023-10-31T03:19:25;9.37;88.78
75786;DHT22;64402;44.708;37.644;2023-10-31T03:21:51;9.37;88.59
75786;DHT22;64402;44.708;37.644;2023-10-31T03:24:18;9.34;88.71
75786;DHT22;64402;44.708;37.644;2023-10-31T03:26:44;9.32;88.97
75786;DHT22;64402;44.708;37.644;2023-10-31T03:29:10;9.32;88.90
75786;DHT22;64402;44.708;37.644;2023-10-31T03:31:37;9.32;88.37
75786;DHT22;64402;44.708;37.644;2023-10-31T03:34:03;9.30;88.47
75786;DHT22;64402;44.708;37.644;2023-10-31T03:36:29;9.26;88.08
75786;DHT22;64402;44.708;37.644;2023-10-31T03:38:56;9.23;87.89
75786;DHT22;64402;44.708;37.644;2023-10-31T03:41:23;9.20;88.33
75786;DHT22;64402;44.708;37.644;2023-10-31T03:43:49;9.15;87.95
75786;DHT22;64402;44.708;37.644;2023-10-31T03:46:15;9.16;88.58
75786;DHT22;64402;44.708;37.644;2023-10-31T03:48:42;9.14;88.21
75786;DHT22;64402;44.708;37.644;2023-10-31T03:51:08;9.10;87.74
75786;DHT22;64402;44.708;37.644;2023-10-31T03:53:36;9.08;87.77
75786;DHT22;64402;44.708;37.644;2023-10-31T03:56:03;9.06;87.81
75786;DHT22;64402;44.708;37.644;2023-10-31T03:58:29;9.06;87.86
75786;DHT22;64402;44.708;37.644;2023-10-31T04:00:56;9.06;88.15
75786;DHT22;64402;44.708;37.644;2023-10-31T04:03:22;9.04;88.05
75786;DHT22;64402;44.708;37.644;2023-10-31T04:05:49;9.04;88.19
75786;DHT22;64402;44.708;37.644;2023-10-31T04:08:15;9.05;88.06
75786;DHT22;64402;44.708;37.644;2023-10-31T04:10:41;9.07;88.12
75786;DHT22;64402;44.708;37.644;2023-10-31T04:13:08;9.09;87.97
75786;DHT22;64402;44.708;37.644;2023-10-31T04:15:34;9.08;87.47
75786;DHT22;64402;44.708;37.644;2023-10-31T04:18:01;9.07;87.54
75786;DHT22;64402;44.708;37.644;2023-10-31T04:20:27;9.09;87.99
75786;DHT22;64402;44.708;37.644;2023-10-31T04:22:53;9.11;87.49
75786;DHT22;64402;44.708;37.644;2023-10-31T04:25:20;9.16;87.59
75786;DHT22;64402;44.708;37.644;2023-10-31T04:27:46;9.22;87.05
75786;DHT22;64402;44.708;37.644;2023-10-31T04:30:12;9.30;86.67
75786;DHT22;64402;44.708;37.644;2023-10-31T04:32:39;9.37;86.72
75786;DHT22;64402;44.708;37.644;2023-10-31T04:35:05;9.41;86.52
75786;DHT22;64402;44.708;37.644;2023-10-31T04:37:32;9.50;86.70
75786;DHT22;64402;44.708;37.644;2023-10-31T04:39:58;9.51;86.47
75786;DHT22;64402;44.708;37.644;2023-10-31T04:42:25;9.54;86.52
75786;DHT22;64402;44.708;37.644;2023-10-31T04:44:51;9.60;84.97
75786;DHT22;64402;44.708;37.644;2023-10-31T04:47:18;9.60;85.64
75786;DHT22;64402;44.708;37.644;2023-10-31T04:49:44;9.63;86.31
75786;DHT22;64402;44.708;37.644;2023-10-31T04:52:10;9.69;86.54
75786;DHT22;64402;44.708;37.644;2023-10-31T04:54:38;9.79;86.39
75786;DHT22;64402;44.708;37.644;2023-10-31T04:57:05;9.92;85.71
75786;DHT22;64402;44.708;37.644;2023-10-31T04:59:32;10.05;85.34
75786;DHT22;64402;44.708;37.644;2023-10-31T05:01:58;10.15;84.86
75786;DHT22;64402;44.708;37.644;2023-10-31T05:04:25;10.27;84.35
75786;DHT22;64402;44.708;37.644;2023-10-31T05:06:51;10.39;84.22
75786;DHT22;64402;44.708;37.644;2023-10-31T05:09:17;10.50;84.14
75786;DHT22;64402;44.708;37.644;2023-10-31T05:11:46;10.59;84.03
75786;DHT22;64402;44.708;37.644;2023-10-31T05:14:12;10.68;84.29
75786;DHT22;64402;44.708;37.644;2023-10-31T05:16:40;10.78;84.35
75786;DHT22;64402;44.708;37.644;2023-10-31T05:19:06;10.90;83.66
75786;DHT22;64402;44.708;37.644;2023-10-31T05:21:33;10.98;83.72
75786;DHT22;64402;44.708;37.644;2023-10-31T05:23:59;11.04;83.95
75786;DHT22;64402;44.708;37.644;2023-10-31T05:26:25;11.15;83.68
75786;DHT22;64402;44.708;37.644;2023-10-31T05:28:53;11.31;83.65
75786;DHT22;64402;44.708;37.644;2023-10-31T05:31:20;11.45;83.05
75786;DHT22;64402;44.708;37.644;2023-10-31T05:33:46;11.63;82.25
75786;DHT22;64402;44.708;37.644;2023-10-31T05:36:20;11.78;82.14
75786;DHT22;64402;44.708;37.644;2023-10-31T05:38:46;11.93;82.32
75786;DHT22;64402;44.708;37.644;2023-10-31T05:41:14;12.05;82.38
75786;DHT22;64402;44.708;37.644;2023-10-31T05:43:40;12.19;81.93
75786;DHT22;64402;44.708;37.644;2023-10-31T05:46:07;12.35;81.17
75786;DHT22;64402;44.708;37.644;2023-10-31T05:48:41;12.50;80.75
75786;DHT22;64402;44.708;37.644;2023-10-31T05:51:14;12.65;81.13
75786;DHT22;64402;44.708;37.644;2023-10-31T05:53:42;12.80;81.30
75786;DHT22;64402;44.708;37.644;2023-10-31T05:56:10;12.95;81.14
75786;DHT22;64402;44.708;37.644;2023-10-31T05:58:39;13.70;78.89
75786;DHT22;64402;44.708;37.644;2023-10-31T06:01:05;15.69;71.47
75786;DHT22;64402;44.708;37.644;2023-10-31T06:03:32;17.52;65.26
75786;DHT22;64402;44.708;37.644;2023-10-31T06:05:59;19.27;58.09
75786;DHT22;64402;44.708;37.644;2023-10-31T06:08:25;20.55;52.46
75786;DHT22;64402;44.708;37.644;2023-10-31T06:10:55;21.67;49.87
75786;DHT22;64402;44.708;37.644;2023-10-31T06:13:22;22.51;47.02
75786;DHT22;64402;44.708;37.644;2023-10-31T06:15:48;23.24;48.46
75786;DHT22;64402;44.708;37.644;2023-10-31T06:18:14;23.94;46.84
75786;DHT22;64402;44.708;37.644;2023-10-31T06:20:41;24.59;45.13
75786;DHT22;64402;44.708;37.644;2023-10-31T06:23:08;25.31;41.00
75786;DHT22;64402;44.708;37.644;2023-10-31T06:25:34;25.89;41.78
75786;DHT22;64402;44.708;37.644;2023-10-31T06:28:00;26.41;40.59
75786;DHT22;64402;44.708;37.644;2023-10-31T06:30:27;27.09;40.55
75786;DHT22;64402;44.708;37.644;2023-10-31T06:32:54;27.63;38.83
75786;DHT22;64402;44.708;37.644;2023-10-31T06:35:20;28.05;38.57
75786;DHT22;64402;44.708;37.644;2023-10-31T06:37:46;28.53;38.25
75786;DHT22;64402;44.708;37.644;2023-10-31T06:40:13;29.16;35.12
75786;DHT22;64402;44.708;37.644;2023-10-31T06:42:39;29.71;34.53
75786;DHT22;64402;44.708;37.644;2023-10-31T06:45:06;30.13;32.99
75786;DHT22;64402;44.708;37.644;2023-10-31T06:47:33;30.59;28.86
75786;DHT22;64402;44.708;37.644;2023-10-31T06:49:59;31.13;27.60
75786;DHT22;64402;44.708;37.644;2023-10-31T06:52:25;31.56;26.40
75786;DHT22;64402;44.708;37.644;2023-10-31T06:54:52;31.90;25.44
75786;DHT22;64402;44.708;37.644;2023-10-31T06:57:18;32.13;25.54
75786;DHT22;64402;44.708;37.644;2023-10-31T06:59:45;32.40;25.42
75786;DHT22;64402;44.708;37.644;2023-10-31T07:02:12;32.91;24.72
75786;DHT22;64402;44.708;37.644;2023-10-31T07:04:40;33.31;23.65
75786;DHT22;64402;44.708;37.644;2023-10-31T07:07:06;33.64;22.55
75786;DHT22;64402;44.708;37.644;2023-10-31T07:09:32;34.00;20.02
75786;DHT22;64402;44.708;37.644;2023-10-31T07:11:59;34.40;21.97
75786;DHT22;64402;44.708;37.644;2023-10-31T07:14:25;34.70;18.52
75786;DHT22;64402;44.708;37.644;2023-10-31T07:16:51;35.03;18.42
75786;DHT22;64402;44.708;37.644;2023-10-31T07:19:18;35.41;17.85
75786;DHT22;64402;44.708;37.644;2023-10-31T07:21:44;35.72;17.94
75786;DHT22;64402;44.708;37.644;2023-10-31T07:24:10;36.15;16.98
75786;DHT22;64402;44.708;37.644;2023-10-31T07:26:37;36.54;15.32
75786;DHT22;64402;44.708;37.644;2023-10-31T07:29:03;36.38;15.98
75786;DHT22;64402;44.708;37.644;2023-10-31T07:31:29;36.80;15.71
75786;DHT22;64402;44.708;37.644;2023-10-31T07:33:56;37.13;15.29
75786;DHT22;64402;44.708;37.644;2023-10-31T07:36:22;37.45;15.09
75786;DHT22;64402;44.708;37.644;2023-10-31T07:38:48;37.77;14.11
75786;DHT22;64402;44.708;37.644;2023-10-31T07:41:15;38.09;13.55
75786;DHT22;64402;44.708;37.644;2023-10-31T07:43:41;38.45;12.60
75786;DHT22;64402;44.708;37.644;2023-10-31T07:46:08;38.86;12.01
75786;DHT22;64402;44.708;37.644;2023-10-31T07:48:34;39.34;12.97
75786;DHT22;64402;44.708;37.644;2023-10-31T07:51:04;39.59;11.33
75786;DHT22;64402;44.708;37.644;2023-10-31T07:53:30;39.92;11.24
75786;DHT22;64402;44.708;37.644;2023-10-31T07:55:57;40.29;10.57
75786;DHT22;64402;44.708;37.644;2023-10-31T07:58:23;40.54;10.85
75786;DHT22;64402;44.708;37.644;2023-10-31T08:00:51;40.77;10.74
75786;DHT22;64402;44.708;37.644;2023-10-31T08:03:17;41.03;9.67
75786;DHT22;64402;44.708;37.644;2023-10-31T08:05:43;41.39;8.30
75786;DHT22;64402;44.708;37.644;2023-10-31T08:08:10;41.66;9.60
75786;DHT22;64402;44.708;37.644;2023-10-31T08:10:36;41.94;9.27
75786;DHT22;64402;44.708;37.644;2023-10-31T08:13:02;42.20;9.19
75786;DHT22;64402;44.708;37.644;2023-10-31T08:15:29;42.46;8.33
75786;DHT22;64402;44.708;37.644;2023-10-31T08:17:55;42.62;7.80
75786;DHT22;64402;44.708;37.644;2023-10-31T08:20:22;42.72;7.41
75786;DHT22;64402;44.708;37.644;2023-10-31T08:22:48;42.68;6.42
75786;DHT22;64402;44.708;37.644;2023-10-31T08:25:15;41.59;8.20
75786;DHT22;64402;44.708;37.644;2023-10-31T08:27:41;41.67;7.38
75786;DHT22;64402;44.708;37.644;2023-10-31T08:30:08;42.52;6.76
75786;DHT22;64402;44.708;37.644;2023-10-31T08:32:34;41.29;7.99
75786;DHT22;64402;44.708;37.644;2023-10-31T08:35:01;40.89;8.85
75786;DHT22;64402;44.708;37.644;2023-10-31T08:37:27;41.83;8.61
75786;DHT22;64402;44.708;37.644;2023-10-31T08:39:53;42.69;7.66
75786;DHT22;64402;44.708;37.644;2023-10-31T08:42:20;43.18;7.38
75786;DHT22;64402;44.708;37.644;2023-10-31T08:44:46;42.49;7.05
75786;DHT22;64402;44.708;37.644;2023-10-31T08:47:13;41.66;8.01
75786;DHT22;64402;44.708;37.644;2023-10-31T08:49:39;41.81;7.73
75786;DHT22;64402;44.708;37.644;2023-10-31T08:52:05;42.13;7.66
75786;DHT22;64402;44.708;37.644;2023-10-31T08:54:32;42.53;7.05
75786;DHT22;64402;44.708;37.644;2023-10-31T08:56:58;42.31;7.45
75786;DHT22;64402;44.708;37.644;2023-10-31T08:59:24;42.91;7.21
75786;DHT22;64402;44.708;37.644;2023-10-31T09:01:51;42.49;7.83
75786;DHT22;64402;44.708;37.644;2023-10-31T09:04:17;41.20;8.58
75786;DHT22;64402;44.708;37.644;2023-10-31T09:06:43;41.06;8.02
75786;DHT22;64402;44.708;37.644;2023-10-31T09:09:10;40.23;9.53
75786;DHT22;64402;44.708;37.644;2023-10-31T09:11:36;40.78;9.80
75786;DHT22;64402;44.708;37.644;2023-10-31T09:14:03;41.19;9.14
75786;DHT22;64402;44.708;37.644;2023-10-31T09:16:29;40.30;9.06
75786;DHT22;64402;44.708;37.644;2023-10-31T09:18:55;40.10;9.80
75786;DHT22;64402;44.708;37.644;2023-10-31T09:21:22;40.33;9.69
75786;DHT22;64402;44.708;37.644;2023-10-31T09:23:48;41.22;9.32
75786;DHT22;64402;44.708;37.644;2023-10-31T09:26:14;40.19;9.85
75786;DHT22;64402;44.708;37.644;2023-10-31T09:28:41;40.47;9.22
75786;DHT22;64402;44.708;37.644;2023-10-31T09:31:17;40.00;9.63
75786;DHT22;64402;44.708;37.644;2023-10-31T09:33:44;39.83;10.30
75786;DHT22;64402;44.708;37.644;2023-10-31T09:36:11;39.45;10.48
75786;DHT22;64402;44.708;37.644;2023-10-31T09:38:39;39.59;10.41
75786;DHT22;64402;44.708;37.644;2023-10-31T09:41:06;40.40;10.11
75786;DHT22;64402;44.708;37.644;2023-10-31T09:43:32;40.81;9.17
75786;DHT22;64402;44.708;37.644;2023-10-31T09:45:59;40.38;9.43
75786;DHT22;64402;44.708;37.644;2023-10-31T09:48:30;40.63;9.48
75786;DHT22;64402;44.708;37.644;2023-10-31T09:50:57;41.21;8.97
75786;DHT22;64402;44.708;37.644;2023-10-31T09:53:24;41.09;8.63
75786;DHT22;64402;44.708;37.644;2023-10-31T09:55:51;40.87;8.52
75786;DHT22;64402;44.708;37.644;2023-10-31T09:58:19;39.98;9.25
75786;DHT22;64402;44.708;37.644;2023-10-31T10:00:46;39.57;9.63
75786;DHT22;64402;44.708;37.644;2023-10-31T10:03:12;40.29;9.20
75786;DHT22;64402;44.708;37.644;2023-10-31T10:05:39;41.14;8.86
75786;DHT22;64402;44.708;37.644;2023-10-31T10:08:07;41.27;8.85
75786;DHT22;64402;44.708;37.644;2023-10-31T10:10:34;41.48;8.00
75786;DHT22;64402;44.708;37.644;2023-10-31T10:13:01;41.29;8.73
75786;DHT22;64402;44.708;37.644;2023-10-31T10:15:29;41.24;8.81
75786;DHT22;64402;44.708;37.644;2023-10-31T10:17:55;40.77;9.14
75786;DHT22;64402;44.708;37.644;2023-10-31T10:20:22;39.88;9.78
75786;DHT22;64402;44.708;37.644;2023-10-31T10:22:48;39.53;10.38
75786;DHT22;64402;44.708;37.644;2023-10-31T10:25:16;39.95;9.93
75786;DHT22;64402;44.708;37.644;2023-10-31T10:27:45;40.27;9.24
75786;DHT22;64402;44.708;37.644;2023-10-31T10:30:13;39.86;10.30
75786;DHT22;64402;44.708;37.644;2023-10-31T10:32:40;40.53;8.95
75786;DHT22;64402;44.708;37.644;2023-10-31T10:35:07;41.16;9.18
75786;DHT22;64402;44.708;37.644;2023-10-31T10:37:37;41.94;7.82
75786;DHT22;64402;44.708;37.644;2023-10-31T10:40:06;40.91;8.94
75786;DHT22;64402;44.708;37.644;2023-10-31T10:42:55;40.75;8.92
75786;DHT22;64402;44.708;37.644;2023-10-31T10:45:23;41.03;8.80
75786;DHT22;64402;44.708;37.644;2023-10-31T10:47:50;40.66;9.24
75786;DHT22;64402;44.708;37.644;2023-10-31T10:50:19;40.63;8.40
75786;DHT22;64402;44.708;37.644;2023-10-31T10:53:10;40.92;8.38
75786;DHT22;64402;44.708;37.644;2023-10-31T10:55:45;41.05;8.02
75786;DHT22;64402;44.708;37.644;2023-10-31T11:00:45;40.89;8.08
75786;DHT22;64402;44.708;37.644;2023-10-31T11:03:12;41.54;8.21
75786;DHT22;64402;44.708;37.644;2023-10-31T11:05:40;41.48;8.31
75786;DHT22;64402;44.708;37.644;2023-10-31T11:08:06;40.69;7.79
75786;DHT22;64402;44.708;37.644;2023-10-31T11:10:34;40.61;8.73
75786;DHT22;64402;44.708;37.644;2023-10-31T11:13:01;40.68;8.46
75786;DHT22;64402;44.708;37.644;2023-10-31T11:15:28;41.71;7.85
75786;DHT22;64402;44.708;37.644;2023-10-31T11:17:55;41.94;7.18
75786;DHT22;64402;44.708;37.644;2023-10-31T11:20:24;40.99;7.19
75786;DHT22;64402;44.708;37.644;2023-10-31T11:22:55;40.69;8.06
75786;DHT22;64402;44.708;37.644;2023-10-31T11:25:25;41.13;8.21
75786;DHT22;64402;44.708;37.644;2023-10-31T11:27:53;41.76;7.16
75786;DHT22;64402;44.708;37.644;2023-10-31T11:32:51;41.63;7.09
75786;DHT22;64402;44.708;37.644;2023-10-31T11:35:18;41.98;6.79
75786;DHT22;64402;44.708;37.644;2023-10-31T11:37:48;42.80;6.41
75786;DHT22;64402;44.708;37.644;2023-10-31T11:42:52;42.03;6.92
75786;DHT22;64402;44.708;37.644;2023-10-31T11:45:39;41.63;6.65
75786;DHT22;64402;44.708;37.644;2023-10-31T11:48:08;41.24;7.28
75786;DHT22;64402;44.708;37.644;2023-10-31T11:50:36;40.95;7.68
75786;DHT22;64402;44.708;37.644;2023-10-31T11:55:36;40.81;7.76
75786;DHT22;64402;44.708;37.644;2023-10-31T11:58:23;41.10;7.73
75786;DHT22;64402;44.708;37.644;2023-10-31T12:00:56;42.16;7.10
75786;DHT22;64402;44.708;37.644;2023-10-31T12:03:26;41.78;6.61
75786;DHT22;64402;44.708;37.644;2023-10-31T12:05:57;41.87;6.83
75786;DHT22;64402;44.708;37.644;2023-10-31T12:10:52;41.75;6.79
75786;DHT22;64402;44.708;37.644;2023-10-31T12:13:19;42.04;6.93
75786;DHT22;64402;44.708;37.644;2023-10-31T12:15:52;41.39;7.61
75786;DHT22;64402;44.708;37.644;2023-10-31T12:18:19;42.17;6.76
75786;DHT22;64402;44.708;37.644;2023-10-31T12:20:50;42.17;6.31
75786;DHT22;64402;44.708;37.644;2023-10-31T12:23:17;41.66;6.79
75786;DHT22;64402;44.708;37.644;2023-10-31T12:25:50;41.99;7.43
75786;DHT22;64402;44.708;37.644;2023-10-31T12:28:24;42.02;7.15
75786;DHT22;64402;44.708;37.644;2023-10-31T12:30:52;42.82;6.60
75786;DHT22;64402;44.708;37.644;2023-10-31T12:33:26;42.65;6.50
75786;DHT22;64402;44.708;37.644;2023-10-31T12:35:59;42.40;6.90
75786;DHT22;64402;44.708;37.644;2023-10-31T12:38:27;42.70;6.41
75786;DHT22;64402;44.708;37.644;2023-10-31T12:40:55;42.47;6.46
75786;DHT22;64402;44.708;37.644;2023-10-31T12:43:21;42.31;6.87
75786;DHT22;64402;44.708;37.644;2023-10-31T12:45:48;42.68;6.28
75786;DHT22;64402;44.708;37.644;2023-10-31T12:48:14;42.97;6.15
75786;DHT22;64402;44.708;37.644;2023-10-31T12:50:40;42.62;5.95
75786;DHT22;64402;44.708;37.644;2023-10-31T12:53:07;41.69;7.25
75786;DHT22;64402;44.708;37.644;2023-10-31T12:55:41;42.14;7.40
75786;DHT22;64402;44.708;37.644;2023-10-31T12:58:08;42.40;6.93
75786;DHT22;64402;44.708;37.644;2023-10-31T13:00:37;42.45;7.20
75786;DHT22;64402;44.708;37.644;2023-10-31T13:03:07;41.71;7.40
75786;DHT22;64402;44.708;37.644;2023-10-31T13:05:35;41.93;7.15
75786;DHT22;64402;44.708;37.644;2023-10-31T13:08:02;42.11;7.19
75786;DHT22;64402;44.708;37.644;2023-10-31T13:10:30;41.96;7.22
75786;DHT22;64402;44.708;37.644;2023-10-31T13:12:59;42.09;6.90
75786;DHT22;64402;44.708;37.644;2023-10-31T13:15:26;42.13;8.60
75786;DHT22;64402;44.708;37.644;2023-10-31T13:17:52;42.04;9.17
75786;DHT22;64402;44.708;37.644;2023-10-31T13:20:20;41.81;8.50
75786;DHT22;64402;44.708;37.644;2023-10-31T13:22:47;41.21;7.98
75786;DHT22;64402;44.708;37.644;2023-10-31T13:25:14;41.03;9.79
75786;DHT22;64402;44.708;37.644;2023-10-31T13:27:43;40.60;10.77
75786;DHT22;64402;44.708;37.644;2023-10-31T13:30:11;40.16;11.52
75786;DHT22;64402;44.708;37.644;2023-10-31T13:32:38;39.87;12.90
75786;DHT22;64402;44.708;37.644;2023-10-31T13:35:05;39.55;12.55
75786;DHT22;64402;44.708;37.644;2023-10-31T13:37:32;38.69;13.68
75786;DHT22;64402;44.708;37.644;2023-10-31T13:40:00;37.64;14.67
75786;DHT22;64402;44.708;37.644;2023-10-31T13:42:26;37.12;16.24
75786;DHT22;64402;44.708;37.644;2023-10-31T13:44:53;36.31;16.79
75786;DHT22;64402;44.708;37.644;2023-10-31T13:47:20;35.20;18.77
75786;DHT22;64402;44.708;37.644;2023-10-31T13:49:47;34.11;19.94
75786;DHT22;64402;44.708;37.644;2023-10-31T13:52:14;32.93;21.28
75786;DHT22;64402;44.708;37.644;2023-10-31T13:54:41;31.95;23.02
75786;DHT22;64402;44.708;37.644;2023-10-31T13:57:07;30.93;24.59
75786;DHT22;64402;44.708;37.644;2023-10-31T13:59:34;29.87;26.54
75786;DHT22;64402;44.708;37.644;2023-10-31T14:02:01;28.95;28.02
75786;DHT22;64402;44.708;37.644;2023-10-31T14:04:27;28.30;29.56
75786;DHT22;64402;44.708;37.644;2023-10-31T14:06:54;27.74;30.66
75786;DHT22;64402;44.708;37.644;2023-10-31T14:09:21;27.24;31.87
75786;DHT22;64402;44.708;37.644;2023-10-31T14:11:47;26.84;32.86
75786;DHT22;64402;44.708;37.644;2023-10-31T14:14:14;26.51;33.38
75786;DHT22;64402;44.708;37.644;2023-10-31T14:16:40;26.25;33.21
75786;DHT22;64402;44.708;37.644;2023-10-31T14:19:07;25.99;34.10
75786;DHT22;64402;44.708;37.644;2023-10-31T14:21:34;25.65;35.04
75786;DHT22;64402;44.708;37.644;2023-10-31T14:24:00;25.40;35.73
75786;DHT22;64402;44.708;37.644;2023-10-31T14:26:27;25.20;35.82
75786;DHT22;64402;44.708;37.644;2023-10-31T14:28:54;24.97;36.51
75786;DHT22;64402;44.708;37.644;2023-10-31T14:31:20;24.66;37.46
75786;DHT22;64402;44.708;37.644;2023-10-31T14:33:47;24.40;37.98
75786;DHT22;64402;44.708;37.644;2023-10-31T14:36:13;24.18;38.03
75786;DHT22;64402;44.708;37.644;2023-10-31T14:38:40;23.97;38.20
75786;DHT22;64402;44.708;37.644;2023-10-31T14:41:07;23.73;38.59
75786;DHT22;64402;44.708;37.644;2023-10-31T14:43:34;23.58;39.07
75786;DHT22;64402;44.708;37.644;2023-10-31T14:46:01;23.42;39.21
75786;DHT22;64402;44.708;37.644;2023-10-31T14:48:28;23.28;39.17
75786;DHT22;64402;44.708;37.644;2023-10-31T14:50:56;23.13;39.81
75786;DHT22;64402;44.708;37.644;2023-10-31T14:53:23;22.96;40.52
75786;DHT22;64402;44.708;37.644;2023-10-31T14:55:49;22.78;40.69
75786;DHT22;64402;44.708;37.644;2023-10-31T14:58:16;22.62;41.05
75786;DHT22;64402;44.708;37.644;2023-10-31T15:00:42;22.47;41.13
75786;DHT22;64402;44.708;37.644;2023-10-31T15:03:08;22.37;41.47
75786;DHT22;64402;44.708;37.644;2023-10-31T15:05:38;22.31;41.87
75786;DHT22;64402;44.708;37.644;2023-10-31T15:08:05;22.19;41.69
75786;DHT22;64402;44.708;37.644;2023-10-31T15:10:32;22.03;41.82
75786;DHT22;64402;44.708;37.644;2023-10-31T15:12:58;21.87;43.41
75786;DHT22;64402;44.708;37.644;2023-10-31T15:15:25;21.72;43.49
75786;DHT22;64402;44.708;37.644;2023-10-31T15:17:51;21.55;43.45
75786;DHT22;64402;44.708;37.644;2023-10-31T15:20:21;21.47;44.03
75786;DHT22;64402;44.708;37.644;2023-10-31T15:22:47;21.42;44.31
75786;DHT22;64402;44.708;37.644;2023-10-31T15:25:13;21.37;44.51
75786;DHT22;64402;44.708;37.644;2023-10-31T15:27:40;21.35;45.07
75786;DHT22;64402;44.708;37.644;2023-10-31T15:30:07;21.29;45.22
75786;DHT22;64402;44.708;37.644;2023-10-31T15:32:38;21.16;45.67
75786;DHT22;64402;44.708;37.644;2023-10-31T15:35:05;21.05;46.09
75786;DHT22;64402;44.708;37.644;2023-10-31T15:37:32;20.99;46.76